createdAt,value
2023-05-07T00:00:09.903Z,2.07
2023-05-07T00:02:40.802Z,2.37
2023-05-07T00:05:10.491Z,2.00
2023-05-07T00:07:39.959Z,1.30
2023-05-07T00:10:10.332Z,1.30
2023-05-07T00:12:39.562Z,1.70
2023-05-07T00:15:09.938Z,1.20
2023-05-07T00:17:40.280Z,1.50
2023-05-07T00:20:09.901Z,1.73
2023-05-07T00:22:38.820Z,1.47
2023-05-07T00:25:08.408Z,1.70
2023-05-07T00:27:37.395Z,1.43
2023-05-07T00:30:07.488Z,1.80
2023-05-07T00:32:37.895Z,1.60
2023-05-07T00:35:09.738Z,1.67
2023-05-07T00:37:38.633Z,1.83
2023-05-07T00:40:09.983Z,1.60
2023-05-07T00:42:39.427Z,1.77
2023-05-07T00:45:09.634Z,1.70
2023-05-07T00:47:38.608Z,1.60
2023-05-07T00:50:11.619Z,2.03
2023-05-07T00:52:40.388Z,1.70
2023-05-07T00:55:10.268Z,2.27
2023-05-07T00:57:40.604Z,2.77
2023-05-07T01:00:11.335Z,2.20
2023-05-07T01:02:42.943Z,1.77
2023-05-07T01:05:15.195Z,1.57
2023-05-07T01:07:45.270Z,1.63
2023-05-07T01:10:15.207Z,1.83
2023-05-07T01:12:44.233Z,2.30
2023-05-07T01:15:13.121Z,2.07
2023-05-07T01:17:43.859Z,2.50
2023-05-07T01:20:15.339Z,1.93
2023-05-07T01:22:45.956Z,1.80
2023-05-07T01:25:15.001Z,1.80
2023-05-07T01:27:43.667Z,1.70
2023-05-07T01:30:14.199Z,1.53
2023-05-07T01:32:46.629Z,1.30
2023-05-07T01:35:19.658Z,1.60
2023-05-07T01:37:50.308Z,1.40
2023-05-07T01:40:19.360Z,1.90
2023-05-07T01:42:49.352Z,1.97
2023-05-07T01:45:18.222Z,2.10
2023-05-07T01:47:47.416Z,1.40
2023-05-07T01:50:18.550Z,1.80
2023-05-07T01:52:47.164Z,1.60
2023-05-07T01:55:17.203Z,1.30
2023-05-07T01:57:46.285Z,1.80
2023-05-07T02:00:15.235Z,1.50
2023-05-07T02:02:44.164Z,1.27
2023-05-07T02:05:12.986Z,1.90
2023-05-07T02:07:41.817Z,2.10
2023-05-07T02:10:11.819Z,1.70
2023-05-07T02:12:42.368Z,1.40
2023-05-07T02:15:11.641Z,2.37
2023-05-07T02:17:42.720Z,1.90
2023-05-07T02:20:14.628Z,2.43
2023-05-07T02:22:43.560Z,2.10
2023-05-07T02:25:12.091Z,2.00
2023-05-07T02:27:44.730Z,1.83
2023-05-07T02:30:14.211Z,1.90
2023-05-07T02:32:43.325Z,2.60
2023-05-07T02:35:12.205Z,2.53
2023-05-07T02:37:40.689Z,2.83
2023-05-07T02:40:10.931Z,2.10
2023-05-07T02:42:40.319Z,2.83
2023-05-07T02:45:12.082Z,2.43
2023-05-07T02:47:41.108Z,2.80
2023-05-07T02:50:10.609Z,2.77
2023-05-07T02:52:39.780Z,2.83
2023-05-07T02:55:09.565Z,3.17
2023-05-07T02:57:38.627Z,3.03
2023-05-07T03:00:16.988Z,3.30
2023-05-07T03:02:45.838Z,2.90
2023-05-07T03:05:15.627Z,3.50
2023-05-07T03:07:47.311Z,3.13
2023-05-07T03:10:16.353Z,3.03
2023-05-07T03:12:45.074Z,3.03
2023-05-07T03:15:15.358Z,3.00
2023-05-07T03:17:44.355Z,2.97
2023-05-07T03:20:14.418Z,3.07
2023-05-07T03:22:43.409Z,3.33
2023-05-07T03:25:12.445Z,3.57
2023-05-07T03:27:41.144Z,3.40
2023-05-07T03:30:11.261Z,3.87
2023-05-07T03:32:41.716Z,4.87
2023-05-07T03:35:11.074Z,4.10
2023-05-07T03:37:40.642Z,3.60
2023-05-07T03:40:13.803Z,3.50
2023-05-07T03:42:42.830Z,4.33
2023-05-07T03:45:12.172Z,5.10
2023-05-07T03:47:43.105Z,4.27
2023-05-07T03:50:13.198Z,4.43
2023-05-07T03:52:42.233Z,4.90
2023-05-07T03:55:12.101Z,4.23
2023-05-07T03:57:41.059Z,4.60
2023-05-07T04:00:11.022Z,4.60
2023-05-07T04:02:41.909Z,4.30
2023-05-07T04:05:11.231Z,5.47
2023-05-07T04:07:40.107Z,6.30
2023-05-07T04:10:09.827Z,4.77
2023-05-07T04:12:38.760Z,5.43
2023-05-07T04:15:08.232Z,4.77
2023-05-07T04:17:37.223Z,5.00
2023-05-07T04:20:09.183Z,4.70
2023-05-07T04:22:38.065Z,4.47
2023-05-07T04:25:07.697Z,4.00
2023-05-07T04:27:36.966Z,4.60
2023-05-07T04:30:06.105Z,6.20
2023-05-07T04:32:34.942Z,4.67
2023-05-07T04:35:03.778Z,4.60
2023-05-07T04:37:34.491Z,4.37
2023-05-07T04:40:02.973Z,4.73
2023-05-07T04:42:32.393Z,10.57
2023-05-07T04:45:01.248Z,12.63
2023-05-07T04:47:30.325Z,10.77
2023-05-07T04:49:59.657Z,6.63
2023-05-07T04:52:28.230Z,5.47
2023-05-07T04:54:58.278Z,5.90
2023-05-07T04:57:27.861Z,5.40
2023-05-07T04:59:56.584Z,5.90
2023-05-07T05:02:25.401Z,5.53
2023-05-07T05:04:53.786Z,5.70
2023-05-07T05:07:22.687Z,4.90
2023-05-07T05:09:51.441Z,4.80
2023-05-07T05:12:21.847Z,5.10
2023-05-07T05:14:50.625Z,5.73
2023-05-07T05:17:19.543Z,4.93
2023-05-07T05:19:48.560Z,4.20
2023-05-07T05:22:17.701Z,4.97
2023-05-07T05:24:46.378Z,5.77
2023-05-07T05:27:15.021Z,5.53
2023-05-07T05:29:44.734Z,5.07
2023-05-07T05:32:13.553Z,4.63
2023-05-07T05:34:42.756Z,5.00
2023-05-07T05:37:12.535Z,6.03
2023-05-07T05:39:41.296Z,6.30
2023-05-07T05:42:09.729Z,6.20
2023-05-07T05:44:38.876Z,5.70
2023-05-07T05:47:11.789Z,5.77
2023-05-07T05:49:43.322Z,6.80
2023-05-07T05:52:14.382Z,6.93
2023-05-07T05:54:43.171Z,5.60
2023-05-07T05:57:11.660Z,6.27
2023-05-07T05:59:40.275Z,5.90
2023-05-07T06:02:09.749Z,6.33
2023-05-07T06:04:40.225Z,5.40
2023-05-07T06:07:09.176Z,5.93
2023-05-07T06:09:37.961Z,5.57
2023-05-07T06:12:06.674Z,5.70
2023-05-07T06:14:35.712Z,4.97
2023-05-07T06:17:04.481Z,6.13
2023-05-07T06:19:33.504Z,7.40
2023-05-07T06:22:03.802Z,7.17
2023-05-07T06:24:32.386Z,6.83
2023-05-07T06:27:01.005Z,6.23
2023-05-07T06:29:31.560Z,5.93
2023-05-07T06:32:09.335Z,5.90
2023-05-07T06:34:38.029Z,5.50
2023-05-07T06:37:08.540Z,5.90
2023-05-07T06:39:38.671Z,6.63
2023-05-07T06:42:07.849Z,5.50
2023-05-07T06:44:37.252Z,7.37
2023-05-07T06:47:06.441Z,7.27
2023-05-07T06:49:35.336Z,5.20
2023-05-07T06:52:03.657Z,6.90
2023-05-07T06:54:33.922Z,6.33
2023-05-07T06:57:02.662Z,6.17
2023-05-07T06:59:31.805Z,5.90
2023-05-07T07:02:00.656Z,6.60
2023-05-07T07:04:29.875Z,6.30
2023-05-07T07:06:59.363Z,7.17
2023-05-07T07:09:28.247Z,7.23
2023-05-07T07:11:58.180Z,7.93
2023-05-07T07:14:27.437Z,6.87
2023-05-07T07:16:56.169Z,6.73
2023-05-07T07:19:25.009Z,7.10
2023-05-07T07:21:53.367Z,6.50
2023-05-07T07:24:22.590Z,7.43
2023-05-07T07:26:51.298Z,6.50
2023-05-07T07:29:21.558Z,5.97
2023-05-07T07:31:50.854Z,6.07
2023-05-07T07:34:19.736Z,6.97
2023-05-07T07:36:48.715Z,6.33
2023-05-07T07:39:17.715Z,6.00
2023-05-07T07:41:46.001Z,6.57
2023-05-07T07:44:16.544Z,6.70
2023-05-07T07:46:47.227Z,6.40
2023-05-07T07:49:16.393Z,7.90
2023-05-07T07:51:45.067Z,6.70
2023-05-07T07:54:14.003Z,6.23
2023-05-07T07:56:42.584Z,6.77
2023-05-07T07:59:11.562Z,6.80
2023-05-07T08:01:40.489Z,6.27
2023-05-07T08:04:11.154Z,6.27
2023-05-07T08:06:39.908Z,6.60
2023-05-07T08:09:08.740Z,6.70
2023-05-07T08:11:37.455Z,6.13
2023-05-07T08:14:06.448Z,7.13
2023-05-07T08:16:35.589Z,6.50
2023-05-07T08:19:04.590Z,5.73
2023-05-07T08:21:35.235Z,6.33
2023-05-07T08:24:03.937Z,5.47
2023-05-07T08:26:32.862Z,6.93
2023-05-07T08:29:01.812Z,7.50
2023-05-07T08:31:30.591Z,5.63
2023-05-07T08:34:00.011Z,6.17
2023-05-07T08:36:29.780Z,5.40
2023-05-07T08:39:00.520Z,6.60
2023-05-07T08:41:31.969Z,5.20
2023-05-07T08:44:01.816Z,6.30
2023-05-07T08:46:34.268Z,5.17
2023-05-07T08:49:03.111Z,6.50
2023-05-07T08:51:32.650Z,5.50
2023-05-07T08:54:04.404Z,5.37
2023-05-07T08:56:33.365Z,5.93
2023-05-07T08:59:02.522Z,4.63
2023-05-07T09:01:31.448Z,4.80
2023-05-07T09:04:00.361Z,6.10
2023-05-07T09:06:29.385Z,5.53
2023-05-07T09:08:59.524Z,5.00
2023-05-07T09:11:29.784Z,5.37
2023-05-07T09:13:59.114Z,5.00
2023-05-07T09:16:28.432Z,5.43
2023-05-07T09:18:59.595Z,5.27
2023-05-07T09:21:28.657Z,5.07
2023-05-07T09:23:58.064Z,4.50
2023-05-07T09:26:28.939Z,5.20
2023-05-07T09:28:58.938Z,5.93
2023-05-07T09:31:27.767Z,5.93
2023-05-07T09:33:57.124Z,6.17
2023-05-07T09:36:25.790Z,5.93
2023-05-07T09:38:54.336Z,6.10
2023-05-07T09:41:23.768Z,10.13
2023-05-07T09:43:56.893Z,7.10
2023-05-07T09:46:30.354Z,6.33
2023-05-07T09:49:00.384Z,6.13
2023-05-07T09:51:32.570Z,6.60
2023-05-07T09:54:03.721Z,5.80
2023-05-07T09:56:33.362Z,6.07
2023-05-07T09:59:04.279Z,5.43
2023-05-07T10:01:35.790Z,6.80
2023-05-07T10:04:05.749Z,5.07
2023-05-07T10:06:34.820Z,5.30
2023-05-07T10:09:04.347Z,6.20
2023-05-07T10:11:35.034Z,4.90
2023-05-07T10:14:05.132Z,4.77
2023-05-07T10:16:38.945Z,5.03
2023-05-07T10:19:08.030Z,5.43
2023-05-07T10:21:38.936Z,5.97
2023-05-07T10:24:11.732Z,6.90
2023-05-07T10:26:41.068Z,5.30
2023-05-07T10:29:15.852Z,5.60
2023-05-07T10:31:55.600Z,4.33
2023-05-07T10:34:27.129Z,4.60
2023-05-07T10:36:57.626Z,4.27
2023-05-07T10:39:26.655Z,4.53
2023-05-07T10:41:55.569Z,4.30
2023-05-07T10:44:29.508Z,5.30
2023-05-07T10:47:10.621Z,5.23
2023-05-07T10:49:42.489Z,4.50
2023-05-07T10:52:16.011Z,4.67
2023-05-07T10:54:45.696Z,4.67
2023-05-07T10:57:36.848Z,5.00
2023-05-07T11:00:06.127Z,5.13
2023-05-07T11:03:13.047Z,4.20
2023-05-07T11:05:42.008Z,4.90
2023-05-07T11:08:11.722Z,5.70
2023-05-07T11:10:53.978Z,7.00
2023-05-07T11:13:44.014Z,5.40
2023-05-07T11:16:22.764Z,4.60
2023-05-07T11:18:55.089Z,5.13
2023-05-07T11:21:37.513Z,4.63
2023-05-07T11:24:07.455Z,4.87
2023-05-07T11:26:48.041Z,4.60
2023-05-07T11:29:21.470Z,4.83
2023-05-07T11:31:55.637Z,4.70
2023-05-07T11:34:26.651Z,5.00
2023-05-07T11:36:56.182Z,4.47
2023-05-07T11:39:29.655Z,4.60
2023-05-07T11:41:58.702Z,4.20
2023-05-07T11:44:30.369Z,5.80
2023-05-07T11:47:00.248Z,5.50
2023-05-07T11:49:31.846Z,4.40
2023-05-07T11:52:00.547Z,5.07
2023-05-07T11:54:29.037Z,5.70
2023-05-07T11:57:03.150Z,5.67
2023-05-07T11:59:32.038Z,5.13
2023-05-07T12:02:01.678Z,4.67
2023-05-07T12:04:32.999Z,5.60
2023-05-07T12:07:02.393Z,5.10
2023-05-07T12:09:31.592Z,3.97
2023-05-07T12:12:00.296Z,4.30
2023-05-07T12:14:31.004Z,4.93
2023-05-07T12:17:03.370Z,4.93
2023-05-07T12:19:33.618Z,3.60
2023-05-07T12:22:02.347Z,5.03
2023-05-07T12:24:31.876Z,5.50
2023-05-07T12:27:00.663Z,4.70
2023-05-07T12:29:29.591Z,3.93
2023-05-07T12:31:58.348Z,4.03
2023-05-07T12:34:27.223Z,3.43
2023-05-07T12:36:58.424Z,3.83
2023-05-07T12:39:27.593Z,4.60
2023-05-07T12:41:56.741Z,3.57
2023-05-07T12:44:26.124Z,3.27
2023-05-07T12:46:54.806Z,4.10
2023-05-07T12:49:25.264Z,4.70
2023-05-07T12:51:54.248Z,4.70
2023-05-07T12:54:34.934Z,4.17
2023-05-07T12:57:05.056Z,3.93
2023-05-07T12:59:34.952Z,4.43
2023-05-07T13:02:04.611Z,4.50
2023-05-07T13:04:33.266Z,4.20
2023-05-07T13:07:02.202Z,4.30
2023-05-07T13:09:31.308Z,4.10
2023-05-07T13:12:02.857Z,3.90
2023-05-07T13:14:31.810Z,4.73
2023-05-07T13:17:00.697Z,4.50
2023-05-07T13:19:31.531Z,4.40
2023-05-07T13:22:00.428Z,4.30
2023-05-07T13:24:29.227Z,3.70
2023-05-07T13:26:58.480Z,4.10
2023-05-07T13:29:33.636Z,4.00
2023-05-07T13:32:02.608Z,3.77
2023-05-07T13:34:30.959Z,4.20
2023-05-07T13:36:59.981Z,3.47
2023-05-07T13:39:28.507Z,4.17
2023-05-07T13:41:57.403Z,3.77
2023-05-07T13:44:27.363Z,3.90
2023-05-07T13:46:56.732Z,4.67
2023-05-07T13:49:25.571Z,4.23
2023-05-07T13:51:54.527Z,4.63
2023-05-07T13:54:22.936Z,4.60
2023-05-07T13:56:51.613Z,4.33
2023-05-07T13:59:20.476Z,4.23
2023-05-07T14:01:50.892Z,4.10
2023-05-07T14:04:19.483Z,4.33
2023-05-07T14:06:48.098Z,4.47
2023-05-07T14:09:16.843Z,4.20
2023-05-07T14:11:45.682Z,3.73
2023-05-07T14:14:17.485Z,4.27
2023-05-07T14:16:46.953Z,5.27
2023-05-07T14:19:18.468Z,4.00
2023-05-07T14:21:47.199Z,5.00
2023-05-07T14:24:24.418Z,4.40
2023-05-07T14:26:59.773Z,4.33
2023-05-07T14:29:28.457Z,3.93
2023-05-07T14:31:57.068Z,4.30
2023-05-07T14:34:27.364Z,3.90
2023-05-07T14:36:56.667Z,4.50
2023-05-07T14:39:28.897Z,3.67
2023-05-07T14:41:57.614Z,4.40
2023-05-07T14:44:26.703Z,5.57
2023-05-07T14:46:55.980Z,5.13
2023-05-07T14:49:26.939Z,5.20
2023-05-07T14:52:00.522Z,4.40
2023-05-07T14:54:29.957Z,5.00
2023-05-07T14:56:59.665Z,4.50
2023-05-07T14:59:28.873Z,6.43
2023-05-07T15:01:57.912Z,5.53
2023-05-07T15:04:26.959Z,5.40
2023-05-07T15:06:57.394Z,6.83
2023-05-07T15:09:26.418Z,5.20
2023-05-07T15:11:55.453Z,6.00
2023-05-07T15:14:24.639Z,4.73
2023-05-07T15:16:53.552Z,6.80
2023-05-07T15:19:23.625Z,6.43
2023-05-07T15:21:52.247Z,5.80
2023-05-07T15:24:23.203Z,6.20
2023-05-07T15:26:53.118Z,5.70
2023-05-07T15:29:22.730Z,6.93
2023-05-07T15:31:52.095Z,5.80
2023-05-07T15:34:20.819Z,7.50
2023-05-07T15:36:49.546Z,7.97
2023-05-07T15:39:18.233Z,7.50
2023-05-07T15:41:51.594Z,6.97
2023-05-07T15:44:20.445Z,7.43
2023-05-07T15:46:49.751Z,7.23
2023-05-07T15:49:18.771Z,7.87
2023-05-07T15:51:47.780Z,7.83
2023-05-07T15:54:18.189Z,6.37
2023-05-07T15:56:48.332Z,6.17
2023-05-07T15:59:18.948Z,7.07
2023-05-07T16:01:48.220Z,8.00
2023-05-07T16:04:17.043Z,7.87
2023-05-07T16:06:47.632Z,7.20
2023-05-07T16:09:16.898Z,6.63
2023-05-07T16:11:45.897Z,7.47
2023-05-07T16:14:16.663Z,5.77
2023-05-07T16:16:45.345Z,6.27
2023-05-07T16:19:14.324Z,6.07
2023-05-07T16:21:43.493Z,6.83
2023-05-07T16:24:12.554Z,7.00
2023-05-07T16:26:41.860Z,6.27
2023-05-07T16:29:11.593Z,6.60
2023-05-07T16:31:41.572Z,7.43
2023-05-07T16:34:11.230Z,5.90
2023-05-07T16:36:40.025Z,8.80
2023-05-07T16:39:09.053Z,8.13
2023-05-07T16:41:37.767Z,6.67
2023-05-07T16:44:06.993Z,5.70
2023-05-07T16:46:35.645Z,6.10
2023-05-07T16:49:06.049Z,5.60
2023-05-07T16:51:36.113Z,8.10
2023-05-07T16:54:05.431Z,5.80
2023-05-07T16:56:33.860Z,7.00
2023-05-07T16:59:02.832Z,6.50
2023-05-07T17:01:32.922Z,6.53
2023-05-07T17:04:02.406Z,6.40
2023-05-07T17:06:33.193Z,6.17
2023-05-07T17:09:02.425Z,6.97
2023-05-07T17:11:34.150Z,5.83
2023-05-07T17:14:05.382Z,6.27
2023-05-07T17:16:34.157Z,5.70
2023-05-07T17:19:03.103Z,5.67
2023-05-07T17:21:33.163Z,5.30
2023-05-07T17:24:01.586Z,5.53
2023-05-07T17:26:31.800Z,6.07
2023-05-07T17:29:00.110Z,5.20
2023-05-07T17:31:28.762Z,4.60
2023-05-07T17:33:58.241Z,5.60
2023-05-07T17:36:27.154Z,6.50
2023-05-07T17:38:57.196Z,6.00
2023-05-07T17:41:26.320Z,5.73
2023-05-07T17:43:55.278Z,5.80
2023-05-07T17:46:24.205Z,6.17
2023-05-07T17:48:53.636Z,5.50
2023-05-07T17:51:22.739Z,4.17
2023-05-07T17:53:51.670Z,5.33
2023-05-07T17:56:22.142Z,5.13
2023-05-07T17:58:59.288Z,5.17
2023-05-07T18:01:28.770Z,5.23
2023-05-07T18:03:57.562Z,4.87
2023-05-07T18:06:26.693Z,4.43
2023-05-07T18:08:59.940Z,5.20
2023-05-07T18:11:33.599Z,4.63
2023-05-07T18:14:03.149Z,5.40
2023-05-07T18:16:32.579Z,4.63
2023-05-07T18:19:01.808Z,5.10
2023-05-07T18:21:30.829Z,4.70
2023-05-07T18:23:59.884Z,5.53
2023-05-07T18:26:28.739Z,5.87
2023-05-07T18:28:58.984Z,5.30
2023-05-07T18:31:28.490Z,5.50
2023-05-07T18:33:57.614Z,5.07
2023-05-07T18:36:28.300Z,6.57
2023-05-07T18:38:57.074Z,7.23
2023-05-07T18:41:26.272Z,6.87
2023-05-07T18:43:56.244Z,6.53
2023-05-07T18:46:26.667Z,6.03
2023-05-07T18:48:55.770Z,5.93
2023-05-07T18:51:24.432Z,5.80
2023-05-07T18:53:53.607Z,7.30
2023-05-07T18:56:22.940Z,6.20
2023-05-07T18:58:52.050Z,6.90
2023-05-07T19:01:20.646Z,5.40
2023-05-07T19:03:51.025Z,5.57
2023-05-07T19:06:21.485Z,6.20
2023-05-07T19:08:50.766Z,6.47
2023-05-07T19:11:20.046Z,6.07
2023-05-07T19:13:48.638Z,5.93
2023-05-07T19:16:17.887Z,6.07
2023-05-07T19:18:46.943Z,6.70
2023-05-07T19:21:17.616Z,6.50
2023-05-07T19:23:46.829Z,6.67
2023-05-07T19:26:16.443Z,5.97
2023-05-07T19:28:45.984Z,6.13
2023-05-07T19:31:21.442Z,5.80
2023-05-07T19:33:50.622Z,5.50
2023-05-07T19:36:21.447Z,5.60
2023-05-07T19:38:53.435Z,6.77
2023-05-07T19:41:23.283Z,7.07
2023-05-07T19:43:51.795Z,10.10
2023-05-07T19:46:20.795Z,6.43
2023-05-07T19:48:49.847Z,6.30
2023-05-07T19:51:18.887Z,5.40
2023-05-07T19:53:49.258Z,6.60
2023-05-07T19:56:17.863Z,6.30
2023-05-07T19:58:47.048Z,5.63
2023-05-07T20:01:15.915Z,6.60
2023-05-07T20:03:46.823Z,6.43
2023-05-07T20:06:15.415Z,5.43
2023-05-07T20:08:45.191Z,4.53
2023-05-07T20:11:16.964Z,5.80
2023-05-07T20:13:45.693Z,5.60
2023-05-07T20:16:14.714Z,4.90
2023-05-07T20:18:43.307Z,5.37
2023-05-07T20:21:11.864Z,5.47
2023-05-07T20:23:40.533Z,5.50
2023-05-07T20:26:09.018Z,4.30
2023-05-07T20:28:39.457Z,4.70
2023-05-07T20:31:08.438Z,4.63
2023-05-07T20:33:40.911Z,5.10
2023-05-07T20:36:09.817Z,4.63
2023-05-07T20:38:39.142Z,5.13
2023-05-07T20:41:08.575Z,4.67
2023-05-07T20:43:38.886Z,4.93
2023-05-07T20:46:08.913Z,4.57
2023-05-07T20:48:37.823Z,5.27
2023-05-07T20:51:06.648Z,5.20
2023-05-07T20:53:37.658Z,5.20
2023-05-07T20:56:06.904Z,4.43
2023-05-07T20:58:39.156Z,4.87
2023-05-07T21:01:08.149Z,4.37
2023-05-07T21:03:36.604Z,5.27
2023-05-07T21:06:05.986Z,4.83
2023-05-07T21:08:34.691Z,5.43
2023-05-07T21:11:04.281Z,5.80
2023-05-07T21:13:32.939Z,4.77
2023-05-07T21:16:03.002Z,5.70
2023-05-07T21:18:31.372Z,5.30
2023-05-07T21:21:00.315Z,5.97
2023-05-07T21:23:29.015Z,5.37
2023-05-07T21:25:58.143Z,5.93
2023-05-07T21:28:26.531Z,4.90
2023-05-07T21:30:55.429Z,5.80
2023-05-07T21:33:25.858Z,6.20
2023-05-07T21:35:54.599Z,6.30
2023-05-07T21:38:23.705Z,6.67
2023-05-07T21:40:52.704Z,6.30
2023-05-07T21:43:21.421Z,6.17
2023-05-07T21:45:53.284Z,5.30
2023-05-07T21:48:22.584Z,5.37
2023-05-07T21:51:01.006Z,7.27
2023-05-07T21:53:29.996Z,6.97
2023-05-07T21:56:00.442Z,7.40
2023-05-07T21:58:29.952Z,6.83
2023-05-07T22:00:59.207Z,6.50
2023-05-07T22:03:28.257Z,6.53
2023-05-07T22:05:58.815Z,7.47
2023-05-07T22:08:27.473Z,8.27
2023-05-07T22:10:56.419Z,6.60
2023-05-07T22:13:25.132Z,8.43
2023-05-07T22:15:58.136Z,8.33
2023-05-07T22:18:27.543Z,6.50
2023-05-07T22:21:00.756Z,6.50
2023-05-07T22:23:29.753Z,7.80
2023-05-07T22:25:58.855Z,7.63
2023-05-07T22:28:27.620Z,6.87
2023-05-07T22:30:58.314Z,6.63
2023-05-07T22:33:27.079Z,7.23
2023-05-07T22:35:55.968Z,7.00
2023-05-07T22:38:29.021Z,6.50
2023-05-07T22:40:57.690Z,6.10
2023-05-07T22:43:26.417Z,6.00
2023-05-07T22:46:00.543Z,6.40
2023-05-07T22:48:29.183Z,7.03
2023-05-07T22:50:57.984Z,6.90
2023-05-07T22:53:26.883Z,6.57
2023-05-07T22:55:56.982Z,6.80
2023-05-07T22:58:25.426Z,6.73
2023-05-07T23:00:54.422Z,6.97
2023-05-07T23:03:23.282Z,8.67
2023-05-07T23:05:52.166Z,8.20
2023-05-07T23:08:20.497Z,6.93
2023-05-07T23:10:49.612Z,8.33
2023-05-07T23:13:19.773Z,7.57
2023-05-07T23:15:51.019Z,8.07
2023-05-07T23:18:20.378Z,7.90
2023-05-07T23:20:49.128Z,8.27
2023-05-07T23:23:18.030Z,8.53
2023-05-07T23:25:47.274Z,8.80
2023-05-07T23:28:16.730Z,9.77
2023-05-07T23:30:47.097Z,7.70
2023-05-07T23:33:15.908Z,7.97
2023-05-07T23:35:44.444Z,7.47
2023-05-07T23:38:13.381Z,7.73
2023-05-07T23:40:42.468Z,7.87
2023-05-07T23:43:11.590Z,8.77
2023-05-07T23:45:40.204Z,7.80
2023-05-07T23:48:10.402Z,8.17
2023-05-07T23:50:39.523Z,7.47
2023-05-07T23:53:08.461Z,6.70
2023-05-07T23:55:36.969Z,7.50
2023-05-07T23:58:05.403Z,7.43
